Time;durP1;ratioP1;P1;durP2;ratioP2;P2;SDS_P1;SDS_P2;PMS_P1;PMS_P2;Temp;Humidity;BMP_temperature;BMP_pressure;BME280_temperature;BME280_humidity;BME280_pressure;Samples;Min_cycle;Max_cycle;Signal;HPM_P1;HPM_P2
2022/04/12 00:00:02;;;;;;;37.80;16.10;;;;;;;2.51;75.60;99710.76;103487;1300;24285;-25
2022/04/12 00:02:28;;;;;;;27.90;14.40;;;;;;;2.48;74.96;99717.25;103520;1302;24350;-29
2022/04/12 00:04:54;;;;;;;24.00;10.50;;;;;;;2.39;73.85;99712.92;103522;1300;24314;-25
2022/04/12 00:07:23;;;;;;;29.50;13.40;;;;;;;2.30;73.06;99715.48;103518;1301;24316;-25
2022/04/12 00:09:49;;;;;;;32.90;19.50;;;;;;;2.22;72.53;99715.73;103498;1300;24445;-25
2022/04/12 00:12:15;;;;;;;30.50;15.90;;;;;;;2.13;73.37;99719.62;103532;1302;24359;-25
2022/04/12 00:14:42;;;;;;;23.60;12.60;;;;;;;2.06;74.37;99716.73;103549;1300;24177;-25
2022/04/12 00:19:37;;;;;;;39.20;16.60;;;;;;;1.97;76.33;99716.86;103548;1300;22507;-26
2022/04/12 00:22:04;;;;;;;24.80;9.90;;;;;;;1.90;79.81;99720.77;103516;1300;24190;-25
2022/04/12 00:24:29;;;;;;;122.80;75.40;;;;;;;1.84;76.58;99720.22;103521;1299;24228;-29
2022/04/12 00:26:55;;;;;;;70.80;30.90;;;;;;;1.76;74.40;99718.06;103576;1300;24474;-29
2022/04/12 00:29:21;;;;;;;81.90;27.80;;;;;;;1.67;73.76;99715.14;103590;1300;24213;-29
2022/04/12 00:31:47;;;;;;;35.30;13.00;;;;;;;1.57;73.49;99716.52;103496;1302;24133;-28
2022/04/12 00:34:13;;;;;;;33.80;16.50;;;;;;;1.49;75.52;99716.56;103530;1300;24225;-26
2022/04/12 00:36:39;;;;;;;46.20;19.10;;;;;;;1.44;78.84;99715.05;103591;1300;24216;-26
2022/04/12 00:39:05;;;;;;;31.60;16.00;;;;;;;1.40;76.17;99716.20;103474;1300;24306;-27
2022/04/12 00:41:35;;;;;;;21.60;9.70;;;;;;;1.31;74.80;99716.09;103435;1300;24321;-24
2022/04/12 00:44:02;;;;;;;38.50;13.30;;;;;;;1.30;75.12;99716.54;103516;1301;24236;-30
2022/04/12 00:46:27;;;;;;;15.00;6.90;;;;;;;1.18;75.89;99716.17;103548;1300;24212;-29
2022/04/12 00:48:53;;;;;;;22.30;7.90;;;;;;;1.05;76.22;99717.30;103587;1300;24371;-26
2022/04/12 00:51:20;;;;;;;20.60;8.80;;;;;;;0.91;76.12;99712.38;103482;1302;24318;-26
2022/04/12 00:53:46;;;;;;;15.20;7.10;;;;;;;0.83;76.26;99712.37;103526;1300;23778;-26
2022/04/12 00:56:12;;;;;;;12.50;7.50;;;;;;;0.74;79.71;99715.80;103543;1300;24394;-26
2022/04/12 00:58:40;;;;;;;22.10;9.60;;;;;;;0.67;81.05;99716.48;103571;1300;24121;-29
2022/04/12 01:01:05;;;;;;;15.50;8.70;;;;;;;0.62;77.87;99714.27;103558;1300;24255;-27
2022/04/12 01:03:31;;;;;;;23.70;10.10;;;;;;;0.53;77.57;99714.27;103549;1302;26253;-25
2022/04/12 01:05:57;;;;;;;24.00;10.30;;;;;;;0.46;77.23;99720.66;103619;1300;24257;-28
2022/04/12 01:08:24;;;;;;;20.90;10.10;;;;;;;0.40;77.03;99724.66;103520;1302;24283;-31
2022/04/12 01:10:50;;;;;;;32.90;13.00;;;;;;;0.40;76.97;99725.25;103563;1300;24248;-29
2022/04/12 01:13:16;;;;;;;177.10;37.20;;;;;;;0.33;77.54;99723.48;103579;1300;24190;-26
2022/04/12 01:15:42;;;;;;;431.00;91.30;;;;;;;0.30;77.11;99723.55;103547;1300;24284;-25
2022/04/12 01:18:10;;;;;;;167.50;34.80;;;;;;;0.29;77.42;99724.91;103574;1301;24227;-31
2022/04/12 01:20:36;;;;;;;40.80;13.70;;;;;;;0.28;77.97;99728.28;103515;1300;24294;-28
2022/04/12 01:23:09;;;;;;;17.40;7.90;;;;;;;0.29;78.66;99729.14;103522;1302;24222;-25
2022/04/12 01:25:37;;;;;;;26.00;9.20;;;;;;;0.26;79.12;99725.98;103563;1302;25915;-30
2022/04/12 01:28:03;;;;;;;23.10;10.30;;;;;;;0.23;79.17;99730.66;103580;1300;22745;-28
2022/04/12 01:30:28;;;;;;;43.90;12.40;;;;;;;0.21;79.55;99733.23;103523;1302;23810;-25
2022/04/12 01:32:54;;;;;;;35.20;11.70;;;;;;;0.26;82.56;99733.08;103511;1302;23594;-29
2022/04/12 01:35:20;;;;;;;29.50;11.80;;;;;;;0.29;81.60;99730.52;103584;1300;24215;-28
2022/04/12 01:37:46;;;;;;;36.00;11.50;;;;;;;0.29;80.11;99733.86;103610;1300;24249;-26
2022/04/12 01:40:12;;;;;;;36.90;10.70;;;;;;;0.31;80.41;99735.68;103546;1302;24247;-26
2022/04/12 01:42:38;;;;;;;34.30;11.30;;;;;;;0.34;82.54;99733.30;103571;1301;24260;-24
2022/04/12 01:45:05;;;;;;;22.20;8.20;;;;;;;0.32;84.31;99738.57;103527;1301;23957;-26
2022/04/12 01:47:30;;;;;;;28.00;9.40;;;;;;;0.24;83.97;99735.09;103540;1301;24355;-30
2022/04/12 01:49:56;;;;;;;14.50;8.30;;;;;;;0.18;81.59;99737.67;103500;1301;24014;-26
2022/04/12 01:52:22;;;;;;;22.60;8.40;;;;;;;0.15;82.19;99738.49;103524;1300;24338;-27
2022/04/12 01:54:49;;;;;;;21.60;9.60;;;;;;;0.07;81.83;99740.16;103582;1302;24357;-29
2022/04/12 01:57:14;;;;;;;16.30;8.00;;;;;;;0.06;82.12;99742.58;103500;1300;22749;-29
2022/04/12 01:59:42;;;;;;;15.90;7.80;;;;;;;0.05;83.32;99746.89;103615;1300;24378;-26
2022/04/12 02:02:09;;;;;;;17.90;7.80;;;;;;;0.03;85.78;99753.39;103526;1302;24229;-29
2022/04/12 02:04:35;;;;;;;27.40;9.40;;;;;;;-0.03;85.86;99758.55;103621;1301;22630;-28
2022/04/12 02:07:01;;;;;;;22.00;9.40;;;;;;;-0.08;83.53;99758.61;103461;1300;24376;-27
2022/04/12 02:09:27;;;;;;;16.10;9.10;;;;;;;-0.13;82.40;99757.80;103554;1300;24317;-26
2022/04/12 02:11:55;;;;;;;19.10;10.40;;;;;;;-0.20;82.11;99758.52;103635;1300;22630;-26
2022/04/12 02:14:21;;;;;;;11.50;6.90;;;;;;;-0.26;84.49;99759.67;103569;1300;23208;-31
2022/04/12 02:16:46;;;;;;;18.30;7.60;;;;;;;-0.22;88.20;99763.20;103536;1302;24305;-29
2022/04/12 02:19:12;;;;;;;20.40;8.50;;;;;;;-0.24;87.88;99765.12;103612;1300;24290;-29
2022/04/12 02:21:38;;;;;;;19.50;8.50;;;;;;;-0.34;86.99;99762.54;103546;1302;23476;-27
2022/04/12 02:24:04;;;;;;;23.30;9.30;;;;;;;-0.39;84.57;99760.66;103536;1302;24215;-29
2022/04/12 02:26:29;;;;;;;15.70;9.00;;;;;;;-0.48;83.48;99762.18;103590;1300;24276;-28
2022/04/12 02:28:55;;;;;;;17.30;9.90;;;;;;;-0.55;83.00;99760.67;103520;1300;24217;-29
2022/04/12 02:31:21;;;;;;;18.30;9.90;;;;;;;-0.59;82.80;99762.52;103497;1300;24248;-29
2022/04/12 02:33:47;;;;;;;17.00;8.30;;;;;;;-0.69;83.21;99762.41;103518;1300;24212;-29
2022/04/12 02:36:13;;;;;;;17.50;9.50;;;;;;;-0.76;83.66;99763.67;103552;1300;24404;-31
2022/04/12 02:38:38;;;;;;;23.80;10.50;;;;;;;-0.79;86.46;99766.16;103587;1300;24302;-29
2022/04/12 02:41:04;;;;;;;28.30;11.20;;;;;;;-0.86;85.49;99757.02;103526;1302;23826;-26
2022/04/12 02:43:30;;;;;;;26.10;9.60;;;;;;;-0.95;85.31;99762.63;103586;1300;24368;-25
2022/04/12 02:45:56;;;;;;;23.80;10.20;;;;;;;-0.98;84.22;99764.92;103517;1302;24202;-26
2022/04/12 02:48:21;;;;;;;35.00;15.90;;;;;;;-0.99;83.50;99764.31;103547;1301;22499;-29
2022/04/12 02:50:47;;;;;;;45.60;15.80;;;;;;;-1.03;83.61;99762.89;103583;1300;22633;-25
2022/04/12 02:53:13;;;;;;;36.30;14.20;;;;;;;-1.01;85.72;99760.57;103516;1300;24248;-29
2022/04/12 02:55:39;;;;;;;32.80;11.90;;;;;;;-0.93;88.08;99758.98;103551;1300;24250;-28
2022/04/12 02:58:05;;;;;;;40.70;13.40;;;;;;;-0.86;88.96;99757.41;103540;1300;24214;-29
2022/04/12 03:00:31;;;;;;;27.70;12.10;;;;;;;-0.88;89.50;99759.44;103570;1300;23814;-25
2022/04/12 03:02:57;;;;;;;20.50;10.80;;;;;;;-0.90;87.26;99756.45;103460;1300;25021;-26
2022/04/12 03:05:23;;;;;;;33.00;11.50;;;;;;;-0.98;86.85;99761.95;103547;1302;24294;-29
2022/04/12 03:07:48;;;;;;;21.50;9.30;;;;;;;-1.01;86.80;99761.14;103517;1300;24410;-29
2022/04/12 03:10:15;;;;;;;30.50;9.30;;;;;;;-1.01;89.04;99763.58;103490;1302;24387;-26
2022/04/12 03:12:41;;;;;;;19.80;10.90;;;;;;;-1.08;88.91;99762.49;103575;1300;24222;-27
2022/04/12 03:15:08;;;;;;;25.80;12.10;;;;;;;-1.19;89.30;99766.83;103568;1300;24302;-30
2022/04/12 03:17:34;;;;;;;37.10;17.70;;;;;;;-1.29;88.64;99772.70;103529;1300;22886;-29
2022/04/12 03:20:00;;;;;;;31.60;12.70;;;;;;;-1.40;87.87;99771.02;103576;1300;23597;-26
2022/04/12 03:22:26;;;;;;;46.90;18.70;;;;;;;-1.49;87.47;99768.84;103510;1302;22518;-27
2022/04/12 03:24:51;;;;;;;75.20;23.00;;;;;;;-1.54;87.70;99776.80;103582;1301;23743;-26
2022/04/12 03:27:17;;;;;;;29.30;12.00;;;;;;;-1.60;87.07;99776.70;103600;1301;22646;-29
2022/04/12 03:29:43;;;;;;;24.90;10.10;;;;;;;-1.66;86.88;99773.42;103508;1301;24212;-26
2022/04/12 03:32:09;;;;;;;28.20;12.10;;;;;;;-1.71;86.83;99775.20;103562;1300;23875;-26
2022/04/12 03:34:36;;;;;;;24.00;10.80;;;;;;;-1.74;86.64;99775.59;103538;1301;24359;-29
2022/04/12 03:37:02;;;;;;;18.60;10.00;;;;;;;-1.73;86.80;99775.29;103570;1302;24271;-29
2022/04/12 03:39:28;;;;;;;18.90;8.40;;;;;;;-1.73;88.21;99776.36;103528;1301;23554;-29
2022/04/12 03:41:54;;;;;;;32.20;12.60;;;;;;;-1.69;87.48;99774.17;103521;1300;22514;-26
2022/04/12 03:44:19;;;;;;;30.40;13.70;;;;;;;-1.64;86.71;99779.41;103527;1300;24263;-28
2022/04/12 03:46:45;;;;;;;22.20;11.70;;;;;;;-1.66;87.53;99776.20;103440;1300;24216;-28
2022/04/12 03:49:11;;;;;;;27.80;10.00;;;;;;;-1.64;87.68;99775.35;103529;1300;25029;-26
2022/04/12 03:51:37;;;;;;;42.80;14.60;;;;;;;-1.66;88.67;99776.06;103517;1302;24246;-29
2022/04/12 03:54:04;;;;;;;36.60;13.00;;;;;;;-1.68;88.51;99780.23;103566;1300;24229;-25
2022/04/12 03:56:30;;;;;;;36.90;13.70;;;;;;;-1.72;87.75;99779.80;103547;1300;25204;-27
2022/04/12 03:58:58;;;;;;;35.60;13.50;;;;;;;-1.73;87.85;99783.42;103529;1300;24306;-30
2022/04/12 04:01:25;;;;;;;38.60;13.40;;;;;;;-1.71;88.80;99784.50;103580;1300;24266;-30
2022/04/12 04:03:51;;;;;;;31.10;12.80;;;;;;;-1.69;88.68;99789.05;103573;1300;22618;-28
2022/04/12 04:06:17;;;;;;;14.20;8.60;;;;;;;-1.70;88.70;99794.10;103546;1300;24338;-26
2022/04/12 04:08:43;;;;;;;28.10;12.20;;;;;;;-1.72;88.07;99795.27;103487;1302;24249;-29
2022/04/12 04:11:08;;;;;;;23.00;10.40;;;;;;;-1.71;88.18;99795.91;103558;1302;24241;-27
2022/04/12 04:13:36;;;;;;;22.00;9.20;;;;;;;-1.66;88.69;99798.89;103338;1300;296284;-25
2022/04/12 04:16:03;;;;;;;32.60;14.80;;;;;;;-1.61;88.07;99799.58;103543;1300;24295;-29
2022/04/12 04:18:29;;;;;;;35.50;16.40;;;;;;;-1.59;87.91;99794.69;103586;1300;24253;-26
2022/04/12 04:20:55;;;;;;;68.40;22.60;;;;;;;-1.41;88.32;99793.42;103585;1300;24236;-29
2022/04/12 04:23:21;;;;;;;29.00;13.60;;;;;;;-1.16;88.90;99789.68;103534;1300;22514;-31
2022/04/12 04:25:47;;;;;;;61.10;28.70;;;;;;;-0.89;89.69;99786.77;103542;1300;22650;-30
2022/04/12 04:28:13;;;;;;;66.30;30.60;;;;;;;-0.59;89.64;99790.17;103563;1300;24328;-26
2022/04/12 04:30:44;;;;;;;51.10;23.10;;;;;;;-0.32;89.26;99790.71;103526;1300;23917;-26
2022/04/12 04:33:10;;;;;;;27.40;13.40;;;;;;;-0.07;88.92;99791.82;103512;1302;23614;-29
2022/04/12 04:35:36;;;;;;;20.80;11.30;;;;;;;0.15;88.49;99794.15;103581;1300;23789;-25
2022/04/12 04:38:02;;;;;;;21.90;11.50;;;;;;;0.38;87.99;99793.39;103558;1302;24221;-26
2022/04/12 04:40:28;;;;;;;16.80;8.90;;;;;;;0.56;87.41;99794.06;103473;1302;22522;-30
2022/04/12 04:42:54;;;;;;;20.30;8.80;;;;;;;0.75;86.85;99797.41;103492;1302;22793;-28
2022/04/12 04:45:19;;;;;;;17.90;8.50;;;;;;;1.00;86.70;99798.11;103483;1300;22494;-25
2022/04/12 04:47:51;;;;;;;18.20;10.30;;;;;;;1.21;86.35;99795.06;103552;1300;24216;-27
2022/04/12 04:50:18;;;;;;;24.70;10.30;;;;;;;1.45;85.82;99794.85;103499;1300;23601;-26
2022/04/12 04:52:44;;;;;;;17.90;10.00;;;;;;;1.68;85.38;99798.90;103532;1300;24236;-26
2022/04/12 04:55:10;;;;;;;21.10;10.70;;;;;;;1.83;84.21;99800.61;103551;1300;23769;-28
2022/04/12 04:57:40;;;;;;;18.90;12.60;;;;;;;1.91;83.10;99804.23;103512;1300;23863;-24
2022/04/12 05:00:07;;;;;;;25.80;13.00;;;;;;;2.02;82.14;99807.63;103501;1302;24294;-25
2022/04/12 05:02:34;;;;;;;20.40;11.10;;;;;;;2.23;82.11;99808.39;103621;1300;24198;-26
2022/04/12 05:05:02;;;;;;;25.60;11.90;;;;;;;2.41;81.80;99810.33;103548;1300;24218;-29
2022/04/12 05:07:27;;;;;;;22.10;12.30;;;;;;;2.62;82.37;99813.61;103619;1300;24212;-31
2022/04/12 05:09:53;;;;;;;24.90;11.80;;;;;;;2.82;82.12;99812.57;103528;1299;24261;-25
2022/04/12 05:12:19;;;;;;;30.40;12.50;;;;;;;2.99;80.58;99820.58;103537;1302;24340;-25
2022/04/12 05:14:44;;;;;;;23.80;12.40;;;;;;;3.08;78.70;99825.09;103569;1300;24300;-26
2022/04/12 05:17:10;;;;;;;17.50;11.60;;;;;;;3.21;77.51;99829.87;103493;1300;24249;-29
2022/04/12 05:19:36;;;;;;;24.90;12.20;;;;;;;3.37;78.65;99831.63;103567;1300;22607;-28
2022/04/12 05:22:02;;;;;;;30.20;10.60;;;;;;;3.44;76.52;99832.56;103563;1300;24499;-30
2022/04/12 05:24:28;;;;;;;22.30;13.00;;;;;;;3.54;76.25;99836.23;103560;1300;24214;-28
2022/04/12 05:26:53;;;;;;;18.50;10.00;;;;;;;3.62;76.05;99834.45;103539;1300;24215;-25
2022/04/12 05:29:19;;;;;;;22.80;12.10;;;;;;;3.72;75.07;99836.91;103508;1300;23613;-28
2022/04/12 05:31:45;;;;;;;32.30;20.40;;;;;;;3.86;74.76;99840.75;103449;1300;23631;-28
2022/04/12 05:34:10;;;;;;;28.20;13.60;;;;;;;4.08;76.56;99844.89;103554;1300;24253;-28
2022/04/12 05:36:36;;;;;;;50.50;27.10;;;;;;;4.37;77.83;99843.15;103500;1302;24226;-27
2022/04/12 05:39:02;;;;;;;30.30;17.30;;;;;;;4.52;77.37;99847.26;103610;1300;24425;-29
2022/04/12 05:41:28;;;;;;;38.20;18.10;;;;;;;4.67;75.79;99846.18;103478;1300;24268;-29
2022/04/12 05:43:53;;;;;;;29.30;19.10;;;;;;;4.80;74.84;99850.29;103529;1300;22539;-25
2022/04/12 05:46:19;;;;;;;33.20;16.70;;;;;;;4.99;75.31;99852.20;103553;1300;23584;-29
2022/04/12 05:48:45;;;;;;;29.80;14.00;;;;;;;5.14;75.81;99852.80;103419;1300;24347;-28
2022/04/12 05:51:11;;;;;;;25.80;11.90;;;;;;;5.16;76.06;99855.22;103561;1300;24176;-25
2022/04/12 05:53:36;;;;;;;30.50;11.60;;;;;;;5.29;76.44;99850.42;103514;1300;24333;-26
2022/04/12 05:56:02;;;;;;;18.20;10.30;;;;;;;5.43;75.91;99848.34;103566;1300;24252;-28
2022/04/12 05:58:30;;;;;;;19.90;11.20;;;;;;;5.51;74.27;99850.03;103576;1300;22509;-25
2022/04/12 06:00:56;;;;;;;16.90;11.20;;;;;;;5.56;72.86;99849.75;103571;1300;24352;-27
2022/04/12 06:03:23;;;;;;;20.30;12.00;;;;;;;5.54;73.89;99847.37;103582;1300;24300;-25
2022/04/12 06:05:49;;;;;;;23.30;10.60;;;;;;;5.82;74.79;99854.35;103447;1300;24248;-27
2022/04/12 06:08:15;;;;;;;22.80;11.50;;;;;;;5.92;74.14;99855.88;103518;1300;23610;-29
2022/04/12 06:10:40;;;;;;;28.20;12.80;;;;;;;6.08;75.24;99855.23;103527;1300;24316;-29
2022/04/12 06:13:06;;;;;;;20.00;11.10;;;;;;;6.21;73.94;99851.70;103564;1300;24213;-25
2022/04/12 06:15:32;;;;;;;22.50;11.60;;;;;;;6.32;73.73;99855.92;103608;1301;24312;-25
2022/04/12 06:17:57;;;;;;;19.60;12.50;;;;;;;6.45;74.03;99859.17;103538;1300;23615;-28
2022/04/12 06:20:23;;;;;;;27.30;13.00;;;;;;;6.57;73.26;99860.99;103456;1301;25106;-28
2022/04/12 06:22:49;;;;;;;28.30;12.60;;;;;;;6.72;73.36;99858.68;103560;1300;23638;-25
2022/04/12 06:25:16;;;;;;;24.50;13.70;;;;;;;6.93;72.67;99864.02;103574;1300;24206;-25
2022/04/12 06:27:45;;;;;;;24.90;15.00;;;;;;;7.17;73.30;99866.39;103525;1300;24264;-28
2022/04/12 06:30:13;;;;;;;26.60;12.40;;;;;;;7.32;72.44;99866.25;103651;1300;22589;-29
2022/04/12 06:32:39;;;;;;;17.90;12.00;;;;;;;7.42;71.74;99865.87;103599;1300;24424;-28
2022/04/12 06:35:06;;;;;;;29.40;13.50;;;;;;;7.61;71.19;99868.33;103602;1300;22862;-28
2022/04/12 06:37:32;;;;;;;20.80;11.40;;;;;;;7.72;70.29;99861.75;103534;1302;25202;-29
2022/04/12 06:39:58;;;;;;;21.60;12.50;;;;;;;7.74;69.28;99865.30;103544;1300;22504;-25
2022/04/12 06:42:24;;;;;;;26.50;12.00;;;;;;;7.83;70.17;99866.70;103429;1301;22496;-29
2022/04/12 06:44:49;;;;;;;24.00;11.80;;;;;;;7.97;69.36;99870.10;103555;1300;22966;-29
2022/04/12 06:47:16;;;;;;;24.00;10.50;;;;;;;8.14;68.74;99867.62;103516;1301;24198;-26
2022/04/12 06:49:43;;;;;;;19.20;10.10;;;;;;;8.37;68.50;99869.73;103536;1300;24214;-29
2022/04/12 06:52:09;;;;;;;16.30;9.90;;;;;;;8.72;68.73;99873.20;103558;1300;23626;-29
2022/04/12 06:54:36;;;;;;;19.30;9.80;;;;;;;8.93;66.70;99875.92;103559;1300;22781;-29
2022/04/12 06:57:01;;;;;;;17.20;9.40;;;;;;;9.25;66.94;99871.53;103574;1300;24482;-27
2022/04/12 06:59:27;;;;;;;17.60;9.40;;;;;;;9.43;65.03;99873.67;103553;1300;24238;-25
2022/04/12 07:01:53;;;;;;;17.00;9.20;;;;;;;9.58;64.54;99873.85;103532;1300;24213;-26
2022/04/12 07:04:19;;;;;;;17.90;8.80;;;;;;;9.71;62.96;99880.19;103529;1300;24454;-27
2022/04/12 07:06:45;;;;;;;14.40;9.50;;;;;;;9.93;63.32;99880.52;103584;1300;24247;-28
2022/04/12 07:09:17;;;;;;;18.60;8.10;;;;;;;10.05;62.48;99881.15;103632;1300;24208;-29
2022/04/12 07:11:43;;;;;;;18.70;9.00;;;;;;;10.20;61.39;99885.64;103565;1300;23640;-29
2022/04/12 07:14:08;;;;;;;15.20;8.30;;;;;;;10.32;60.68;99889.49;103517;1300;22867;-25
2022/04/12 07:16:34;;;;;;;19.70;9.30;;;;;;;10.26;58.26;99890.38;103552;1300;24371;-28
2022/04/12 07:19:00;;;;;;;25.80;11.10;;;;;;;10.22;58.30;99894.60;103484;1300;24434;-28
2022/04/12 07:21:28;;;;;;;19.60;9.00;;;;;;;10.42;58.85;99896.91;103617;1300;24244;-29
2022/04/12 07:23:53;;;;;;;18.00;7.70;;;;;;;10.41;59.43;99898.76;103540;1300;24268;-27
2022/04/12 07:26:20;;;;;;;21.70;9.70;;;;;;;10.43;57.13;99894.66;103529;1300;24218;-30
2022/04/12 07:28:46;;;;;;;21.90;12.40;;;;;;;10.61;56.96;99899.66;103531;1300;24250;-25
2022/04/12 07:31:11;;;;;;;21.60;10.90;;;;;;;10.86;56.91;99902.34;103570;1300;24320;-25
2022/04/12 07:33:38;;;;;;;27.50;11.80;;;;;;;11.18;57.66;99905.77;103568;1300;24214;-25
2022/04/12 07:36:04;;;;;;;17.90;10.20;;;;;;;11.58;56.92;99908.01;103488;1300;24258;-25
2022/04/12 07:38:30;;;;;;;15.90;9.00;;;;;;;12.01;56.20;99907.73;103604;1300;24298;-28
2022/04/12 07:40:56;;;;;;;18.10;9.50;;;;;;;12.12;53.54;99909.19;103425;1302;24300;-26
2022/04/12 07:43:21;;;;;;;27.80;11.30;;;;;;;12.46;53.71;99908.00;103539;1302;24247;-25
2022/04/12 07:45:47;;;;;;;27.90;9.30;;;;;;;12.73;52.49;99910.01;103622;1300;24413;-29
2022/04/12 07:48:13;;;;;;;12.90;8.60;;;;;;;12.93;51.46;99909.26;103633;1300;24366;-30
2022/04/12 07:50:39;;;;;;;19.40;7.90;;;;;;;13.20;50.86;99909.72;103535;1300;24343;-26
2022/04/12 07:53:05;;;;;;;9.50;5.70;;;;;;;13.49;50.40;99911.05;103572;1300;24350;-26
2022/04/12 07:55:31;;;;;;;11.40;6.90;;;;;;;13.56;47.23;99913.39;103535;1300;24191;-28
2022/04/12 07:57:56;;;;;;;12.80;5.60;;;;;;;13.38;45.98;99915.72;103581;1300;24295;-28
2022/04/12 08:00:23;;;;;;;4.20;2.60;;;;;;;13.60;44.20;99913.70;103484;1302;24417;-29
2022/04/12 08:02:49;;;;;;;4.90;2.80;;;;;;;13.71;41.94;99914.42;103627;1300;24256;-28
2022/04/12 08:05:15;;;;;;;8.30;4.00;;;;;;;13.51;40.77;99914.96;103624;1300;24358;-26
2022/04/12 08:07:47;;;;;;;6.50;1.90;;;;;;;13.83;41.34;99911.21;103619;1300;24282;-28
2022/04/12 08:10:15;;;;;;;1.40;0.60;;;;;;;14.19;40.51;99908.15;103582;1300;24372;-29
2022/04/12 08:12:42;;;;;;;3.30;2.10;;;;;;;14.45;38.37;99906.64;103552;1300;24385;-28
2022/04/12 08:15:09;;;;;;;6.40;2.80;;;;;;;14.39;37.80;99905.64;103557;1300;24196;-29
2022/04/12 08:17:36;;;;;;;7.00;3.30;;;;;;;14.45;37.09;99907.30;103605;1300;24311;-25
2022/04/12 08:20:03;;;;;;;2.00;1.20;;;;;;;14.48;36.78;99907.94;103547;1300;24238;-25
2022/04/12 08:22:28;;;;;;;4.80;3.40;;;;;;;14.64;37.77;99906.80;103535;1300;22732;-24
2022/04/12 08:24:54;;;;;;;4.00;2.10;;;;;;;14.67;36.22;99910.41;103552;1300;22774;-28
2022/04/12 08:27:20;;;;;;;5.50;2.90;;;;;;;14.69;35.16;99907.63;103536;1300;24247;-28
2022/04/12 08:29:46;;;;;;;5.20;2.70;;;;;;;14.74;35.85;99910.57;103537;1300;24312;-28
2022/04/12 08:32:12;;;;;;;4.30;2.40;;;;;;;15.07;35.49;99912.20;103523;1300;24360;-28
2022/04/12 08:34:37;;;;;;;4.90;2.20;;;;;;;15.08;34.84;99910.10;103646;1300;23009;-26
2022/04/12 08:37:05;;;;;;;5.20;2.90;;;;;;;15.15;35.14;99908.86;103577;1300;24180;-25
2022/04/12 08:39:31;;;;;;;4.10;2.40;;;;;;;15.50;34.70;99912.05;103661;1300;24350;-24
2022/04/12 08:41:59;;;;;;;4.60;1.90;;;;;;;15.45;33.95;99913.36;103623;1300;22500;-28
2022/04/12 08:44:24;;;;;;;4.10;1.70;;;;;;;15.39;34.71;99911.89;103606;1300;24403;-24
2022/04/12 08:46:50;;;;;;;3.20;2.00;;;;;;;15.49;34.15;99909.13;103459;1302;24260;-28
2022/04/12 08:49:16;;;;;;;1.60;1.40;;;;;;;15.89;34.72;99906.55;103538;1300;24354;-25
2022/04/12 08:51:43;;;;;;;4.20;2.20;;;;;;;15.74;32.75;99909.23;103553;1300;24424;-29
2022/04/12 08:54:09;;;;;;;3.70;2.20;;;;;;;15.99;33.68;99905.58;103321;1302;22511;-30
2022/04/12 08:56:35;;;;;;;8.30;2.20;;;;;;;16.37;33.02;99910.89;103548;1300;24485;-27
2022/04/12 08:59:01;;;;;;;7.10;2.10;;;;;;;16.69;32.65;99902.90;103592;1300;24231;-30
2022/04/12 09:01:27;;;;;;;13.70;3.30;;;;;;;16.86;32.43;99905.90;103573;1300;22742;-25
2022/04/12 09:03:54;;;;;;;2.70;1.90;;;;;;;16.86;30.93;99905.36;103412;1300;24458;-28
2022/04/12 09:06:20;;;;;;;4.00;2.20;;;;;;;16.76;30.97;99901.88;103451;1300;24206;-28
2022/04/12 09:08:46;;;;;;;12.30;1.90;;;;;;;16.71;31.40;99899.57;103624;1300;25080;-25
2022/04/12 09:11:13;;;;;;;1.80;1.00;;;;;;;16.48;30.10;99902.97;103578;1300;22631;-25
2022/04/12 09:13:40;;;;;;;16.80;3.10;;;;;;;15.53;29.23;99905.29;103557;1300;24252;-28
2022/04/12 09:16:08;;;;;;;2.60;1.60;;;;;;;15.65;31.16;99901.48;103556;1300;24301;-28
2022/04/12 09:18:36;;;;;;;3.90;1.70;;;;;;;15.59;31.24;99903.31;103469;1300;24430;-25
2022/04/12 09:21:09;;;;;;;4.70;1.20;;;;;;;15.54;32.37;99901.41;103600;1300;24315;-28
2022/04/12 09:23:35;;;;;;;9.10;1.70;;;;;;;16.36;33.29;99895.30;103562;1300;23740;-28
2022/04/12 09:26:00;;;;;;;3.30;1.60;;;;;;;16.78;31.57;99894.96;103251;1300;24317;-25
2022/04/12 09:28:35;;;;;;;3.90;1.70;;;;;;;16.80;29.58;99893.32;103564;1300;24304;-31
2022/04/12 09:31:01;;;;;;;3.90;1.70;;;;;;;16.41;30.11;99898.52;103579;1300;24317;-27
2022/04/12 09:33:35;;;;;;;3.90;1.90;;;;;;;16.42;30.28;99893.38;103536;1302;22505;-28
2022/04/12 09:36:00;;;;;;;;;;;;;;;16.06;29.37;99896.02;103585;1300;25215;-25
2022/04/12 09:38:30;;;;;;;2.20;1.10;;;;;;;15.87;30.10;99894.59;103644;1302;24250;-28
2022/04/12 09:41:13;;;;;;;1.80;1.30;;;;;;;16.28;30.54;99893.13;103578;1302;24198;-28
2022/04/12 09:43:50;;;;;;;0.80;0.80;;;;;;;16.55;29.99;99885.67;103609;1300;24216;-28
2022/04/12 09:46:16;;;;;;;5.90;1.40;;;;;;;16.27;28.89;99888.71;103562;1300;22649;-28
2022/04/12 09:48:47;;;;;;;1.60;1.00;;;;;;;15.81;29.55;99886.42;103541;1300;22499;-25
2022/04/12 09:51:14;;;;;;;5.90;2.00;;;;;;;15.77;29.32;99881.25;103633;1300;24370;-24
2022/04/12 09:53:41;;;;;;;2.90;1.60;;;;;;;15.30;30.01;99885.88;103540;1300;24195;-25
2022/04/12 09:56:13;;;;;;;2.60;1.40;;;;;;;16.17;28.43;99878.92;103558;1300;24975;-28
2022/04/12 09:58:39;;;;;;;2.10;1.30;;;;;;;15.78;29.00;99880.92;103620;1300;22852;-28
2022/04/12 10:01:05;;;;;;;1.80;1.30;;;;;;;16.10;30.32;99876.47;103508;1300;24301;-24
2022/04/12 10:03:30;;;;;;;1.80;1.40;;;;;;;16.57;28.91;99875.58;103524;1300;23587;-28
2022/04/12 10:05:56;;;;;;;6.40;1.40;;;;;;;16.68;27.91;99873.59;103514;1300;24295;-24
2022/04/12 10:08:23;;;;;;;2.60;1.20;;;;;;;16.29;28.09;99879.84;103546;1300;24302;-28
2022/04/12 10:10:49;;;;;;;3.30;1.20;;;;;;;16.08;28.83;99883.61;103554;1300;23939;-28
2022/04/12 10:13:15;;;;;;;3.60;1.00;;;;;;;15.89;27.65;99877.66;103571;1300;24404;-27
2022/04/12 10:15:41;;;;;;;1.90;0.90;;;;;;;16.10;28.27;99869.30;103570;1300;24195;-25
2022/04/12 10:18:06;;;;;;;1.30;0.70;;;;;;;16.06;27.42;99873.30;103527;1299;22624;-28
2022/04/12 10:20:32;;;;;;;1.80;0.60;;;;;;;15.84;26.94;99874.48;103565;1300;24508;-28
2022/04/12 10:22:58;;;;;;;0.90;0.80;;;;;;;15.83;27.60;99871.89;103537;1300;24176;-29
2022/04/12 10:25:24;;;;;;;1.30;0.60;;;;;;;16.00;26.37;99869.83;103380;1301;24304;-29
2022/04/12 10:27:53;;;;;;;3.40;1.50;;;;;;;15.64;26.74;99873.32;103470;1300;22511;-25
2022/04/12 10:30:18;;;;;;;2.60;0.90;;;;;;;16.06;28.47;99872.46;103491;1300;23975;-29
2022/04/12 10:32:58;;;;;;;1.80;1.40;;;;;;;16.45;27.62;99864.90;103556;1300;24309;-24
2022/04/12 10:35:23;;;;;;;4.50;1.40;;;;;;;17.04;27.31;99864.36;103593;1300;24367;-30
2022/04/12 10:37:51;;;;;;;4.90;1.00;;;;;;;17.41;27.30;99858.66;103588;1300;25226;-26
2022/04/12 10:40:17;;;;;;;1.30;0.90;;;;;;;17.16;25.45;99856.34;103494;1300;23409;-25
2022/04/12 10:42:43;;;;;;;1.60;0.70;;;;;;;17.23;25.99;99856.84;103684;1300;24382;-26
2022/04/12 10:45:09;;;;;;;2.10;1.20;;;;;;;17.34;26.34;99856.85;103614;1300;24462;-26
2022/04/12 10:47:36;;;;;;;3.20;1.50;;;;;;;18.04;28.20;99850.63;103553;1300;24247;-28
2022/04/12 10:50:05;;;;;;;2.60;1.50;;;;;;;18.37;26.20;99849.70;103570;1300;22958;-28
2022/04/12 10:52:34;;;;;;;1.90;1.10;;;;;;;18.12;26.42;99846.38;103569;1300;24275;-24
2022/04/12 10:55:02;;;;;;;3.50;1.60;;;;;;;17.91;26.53;99849.34;103576;1300;24241;-24
2022/04/12 10:57:28;;;;;;;3.90;1.30;;;;;;;17.79;26.27;99851.52;103537;1300;24345;-28
2022/04/12 11:00:08;;;;;;;4.30;1.60;;;;;;;18.22;26.79;99846.95;103555;1300;24227;-28
2022/04/12 11:02:38;;;;;;;2.70;1.40;;;;;;;18.24;25.89;99843.03;103547;1299;24267;-24
2022/04/12 11:05:05;;;;;;;2.40;1.20;;;;;;;18.14;26.10;99841.95;103576;1302;24401;-24
2022/04/12 11:07:33;;;;;;;2.50;1.30;;;;;;;17.99;25.82;99841.08;103566;1301;24279;-28
2022/04/12 11:10:07;;;;;;;6.40;1.80;;;;;;;17.36;25.62;99845.52;103527;1300;24360;-28
2022/04/12 11:12:40;;;;;;;1.20;0.90;;;;;;;16.62;27.00;99841.79;103590;1300;25215;-28
2022/04/12 11:15:19;;;;;;;;;;;;;;;16.77;27.28;99840.89;103646;1300;23997;-28
2022/04/12 11:17:44;;;;;;;1.60;1.30;;;;;;;16.71;27.23;99842.20;103571;1302;24444;-28